sensor_id;sensor_type;location;lat;lon;timestamp;pressure;altitude;pressure_sealevel;temperature;humidity
23016;BME280;11674;52.428;13.584;2023-06-26T00:03:53;101299.66;;;22.51;62.37
23016;BME280;11674;52.428;13.584;2023-06-26T00:09:00;101295.63;;;22.40;62.70
23016;BME280;11674;52.428;13.584;2023-06-26T00:14:07;101308.28;;;22.31;63.02
23016;BME280;11674;52.428;13.584;2023-06-26T00:19:14;101304.84;;;22.25;63.19
23016;BME280;11674;52.428;13.584;2023-06-26T00:24:21;101290.97;;;22.20;63.05
23016;BME280;11674;52.428;13.584;2023-06-26T00:29:28;101301.34;;;22.16;63.25
23016;BME280;11674;52.428;13.584;2023-06-26T00:34:35;101298.38;;;22.13;63.29
23016;BME280;11674;52.428;13.584;2023-06-26T00:39:42;101292.16;;;22.07;63.72
23016;BME280;11674;52.428;13.584;2023-06-26T00:44:50;101287.09;;;22.01;63.77
23016;BME280;11674;52.428;13.584;2023-06-26T00:49:57;101288.16;;;21.96;63.88
23016;BME280;11674;52.428;13.584;2023-06-26T00:55:04;101284.50;;;21.96;63.82
23016;BME280;11674;52.428;13.584;2023-06-26T01:00:12;101289.69;;;21.94;63.90
23016;BME280;11674;52.428;13.584;2023-06-26T01:05:20;101275.81;;;21.89;64.37
23016;BME280;11674;52.428;13.584;2023-06-26T01:10:27;101272.97;;;21.89;64.48
23016;BME280;11674;52.428;13.584;2023-06-26T01:15:34;101271.78;;;21.90;64.28
23016;BME280;11674;52.428;13.584;2023-06-26T01:20:41;101269.69;;;21.87;64.63
23016;BME280;11674;52.428;13.584;2023-06-26T01:26:19;101267.91;;;21.82;64.86
23016;BME280;11674;52.428;13.584;2023-06-26T01:31:28;101262.25;;;21.70;64.70
23016;BME280;11674;52.428;13.584;2023-06-26T01:36:36;101264.22;;;21.58;64.67
23016;BME280;11674;52.428;13.584;2023-06-26T01:41:43;101257.63;;;21.54;65.30
23016;BME280;11674;52.428;13.584;2023-06-26T01:57:26;101236.94;;;21.50;64.96
23016;BME280;11674;52.428;13.584;2023-06-26T02:02:34;101244.09;;;21.47;65.41
23016;BME280;11674;52.428;13.584;2023-06-26T02:07:41;101244.91;;;21.48;65.18
23016;BME280;11674;52.428;13.584;2023-06-26T02:12:49;101245.75;;;21.48;65.53
23016;BME280;11674;52.428;13.584;2023-06-26T02:17:56;101242.91;;;21.48;65.76
23016;BME280;11674;52.428;13.584;2023-06-26T02:23:03;101240.91;;;21.49;65.76
23016;BME280;11674;52.428;13.584;2023-06-26T02:28:10;101235.75;;;21.51;65.47
23016;BME280;11674;52.428;13.584;2023-06-26T02:33:17;101234.56;;;21.52;66.00
23016;BME280;11674;52.428;13.584;2023-06-26T02:38:24;101237.38;;;21.52;66.02
23016;BME280;11674;52.428;13.584;2023-06-26T02:43:31;101234.91;;;21.50;65.67
23016;BME280;11674;52.428;13.584;2023-06-26T02:48:38;101237.28;;;21.48;65.97
23016;BME280;11674;52.428;13.584;2023-06-26T02:53:45;101227.97;;;21.48;65.83
23016;BME280;11674;52.428;13.584;2023-06-26T02:58:52;101232.69;;;21.44;66.09
23016;BME280;11674;52.428;13.584;2023-06-26T03:04:00;101231.25;;;21.38;66.25
23016;BME280;11674;52.428;13.584;2023-06-26T03:09:07;101226.44;;;21.26;66.44
23016;BME280;11674;52.428;13.584;2023-06-26T03:14:14;101223.00;;;21.21;66.10
23016;BME280;11674;52.428;13.584;2023-06-26T03:19:21;101216.06;;;21.18;66.39
23016;BME280;11674;52.428;13.584;2023-06-26T03:24:47;101214.53;;;21.21;66.45
23016;BME280;11674;52.428;13.584;2023-06-26T03:29:54;101208.53;;;21.22;66.23
23016;BME280;11674;52.428;13.584;2023-06-26T03:35:01;101209.38;;;21.23;66.51
23016;BME280;11674;52.428;13.584;2023-06-26T03:40:09;101203.00;;;21.26;66.79
23016;BME280;11674;52.428;13.584;2023-06-26T03:45:16;101198.78;;;21.32;66.74
23016;BME280;11674;52.428;13.584;2023-06-26T03:50:23;101202.31;;;21.41;66.91
23016;BME280;11674;52.428;13.584;2023-06-26T03:55:31;101196.31;;;21.78;66.67
23016;BME280;11674;52.428;13.584;2023-06-26T04:00:38;101188.88;;;22.10;66.66
23016;BME280;11674;52.428;13.584;2023-06-26T04:05:45;101189.75;;;22.26;66.64
23016;BME280;11674;52.428;13.584;2023-06-26T04:10:52;101189.44;;;22.55;66.33
23016;BME280;11674;52.428;13.584;2023-06-26T04:16:00;101190.31;;;23.29;66.35
23016;BME280;11674;52.428;13.584;2023-06-26T04:26:15;101193.22;;;24.90;64.87
23016;BME280;11674;52.428;13.584;2023-06-26T04:31:22;101186.66;;;25.50;64.40
23016;BME280;11674;52.428;13.584;2023-06-26T04:36:29;101183.34;;;25.70;63.63
23016;BME280;11674;52.428;13.584;2023-06-26T04:41:36;101188.41;;;25.58;63.03
23016;BME280;11674;52.428;13.584;2023-06-26T04:46:43;101187.63;;;25.35;62.98
23016;BME280;11674;52.428;13.584;2023-06-26T04:51:50;101190.69;;;25.04;62.95
23016;BME280;11674;52.428;13.584;2023-06-26T04:56:57;101183.38;;;24.84;63.12
23016;BME280;11674;52.428;13.584;2023-06-26T05:02:04;101179.09;;;24.71;63.26
23016;BME280;11674;52.428;13.584;2023-06-26T05:07:11;101176.47;;;24.62;62.98
23016;BME280;11674;52.428;13.584;2023-06-26T05:12:18;101174.66;;;24.54;62.92
23016;BME280;11674;52.428;13.584;2023-06-26T05:17:25;101172.50;;;24.67;63.05
23016;BME280;11674;52.428;13.584;2023-06-26T05:22:33;101172.78;;;24.81;62.68
23016;BME280;11674;52.428;13.584;2023-06-26T05:27:47;101170.81;;;24.85;62.27
23016;BME280;11674;52.428;13.584;2023-06-26T05:32:55;101170.91;;;24.88;62.30
23016;BME280;11674;52.428;13.584;2023-06-26T05:38:03;101163.91;;;25.05;62.00
23016;BME280;11674;52.428;13.584;2023-06-26T05:43:10;101156.84;;;25.18;61.75
23016;BME280;11674;52.428;13.584;2023-06-26T05:48:17;101148.59;;;25.32;61.44
23016;BME280;11674;52.428;13.584;2023-06-26T05:53:24;101136.59;;;25.42;61.14
23016;BME280;11674;52.428;13.584;2023-06-26T05:58:31;101128.16;;;25.49;60.87
23016;BME280;11674;52.428;13.584;2023-06-26T06:03:39;101128.16;;;25.49;60.68
23016;BME280;11674;52.428;13.584;2023-06-26T06:08:47;101128.16;;;25.49;60.07
23016;BME280;11674;52.428;13.584;2023-06-26T06:13:54;101118.00;;;25.48;59.94
23016;BME280;11674;52.428;13.584;2023-06-26T06:19:01;101125.59;;;25.40;59.66
23016;BME280;11674;52.428;13.584;2023-06-26T06:24:08;101118.53;;;25.31;60.00
23016;BME280;11674;52.428;13.584;2023-06-26T06:29:24;101122.91;;;25.25;59.34
23016;BME280;11674;52.428;13.584;2023-06-26T06:34:32;101117.84;;;25.37;59.26
23016;BME280;11674;52.428;13.584;2023-06-26T06:39:39;101118.88;;;25.52;59.04
23016;BME280;11674;52.428;13.584;2023-06-26T06:44:46;101123.13;;;25.65;58.58
23016;BME280;11674;52.428;13.584;2023-06-26T06:49:53;101111.94;;;25.75;58.27
23016;BME280;11674;52.428;13.584;2023-06-26T06:55:00;101112.66;;;25.95;58.00
23016;BME280;11674;52.428;13.584;2023-06-26T07:00:09;101099.03;;;26.11;57.59
23016;BME280;11674;52.428;13.584;2023-06-26T07:05:16;101103.22;;;26.20;57.05
23016;BME280;11674;52.428;13.584;2023-06-26T07:10:23;101095.34;;;26.40;56.68
23016;BME280;11674;52.428;13.584;2023-06-26T07:15:30;101092.34;;;26.59;56.17
23016;BME280;11674;52.428;13.584;2023-06-26T07:20:37;101090.06;;;26.75;56.23
23016;BME280;11674;52.428;13.584;2023-06-26T07:25:44;101082.94;;;26.95;55.31
23016;BME280;11674;52.428;13.584;2023-06-26T07:30:51;101077.75;;;27.07;55.21
23016;BME280;11674;52.428;13.584;2023-06-26T07:36:05;101083.19;;;27.23;54.16
23016;BME280;11674;52.428;13.584;2023-06-26T07:41:12;101082.09;;;27.38;54.17
23016;BME280;11674;52.428;13.584;2023-06-26T07:46:19;101076.91;;;27.50;53.63
23016;BME280;11674;52.428;13.584;2023-06-26T07:51:26;101069.25;;;27.65;53.18
23016;BME280;11674;52.428;13.584;2023-06-26T07:56:58;101062.78;;;27.75;52.11
23016;BME280;11674;52.428;13.584;2023-06-26T08:02:05;101055.50;;;27.81;50.88
23016;BME280;11674;52.428;13.584;2023-06-26T08:07:12;101062.06;;;27.88;50.80
23016;BME280;11674;52.428;13.584;2023-06-26T08:12:19;101048.28;;;28.08;50.90
23016;BME280;11674;52.428;13.584;2023-06-26T08:17:26;101056.09;;;28.25;49.80
23016;BME280;11674;52.428;13.584;2023-06-26T08:22:33;101046.34;;;28.33;49.90
23016;BME280;11674;52.428;13.584;2023-06-26T08:27:40;101048.88;;;28.52;49.35
23016;BME280;11674;52.428;13.584;2023-06-26T08:32:47;101045.59;;;28.53;48.55
23016;BME280;11674;52.428;13.584;2023-06-26T08:37:54;101029.31;;;28.54;48.16
23016;BME280;11674;52.428;13.584;2023-06-26T08:43:01;101033.81;;;28.72;48.23
23016;BME280;11674;52.428;13.584;2023-06-26T08:48:08;101038.72;;;28.86;47.41
23016;BME280;11674;52.428;13.584;2023-06-26T08:53:26;101016.25;;;28.91;46.68
23016;BME280;11674;52.428;13.584;2023-06-26T08:58:35;101018.72;;;29.00;46.10
23016;BME280;11674;52.428;13.584;2023-06-26T09:03:43;101016.28;;;29.05;45.91
23016;BME280;11674;52.428;13.584;2023-06-26T09:08:50;101012.19;;;29.17;45.85
23016;BME280;11674;52.428;13.584;2023-06-26T09:13:57;100997.44;;;29.36;45.28
23016;BME280;11674;52.428;13.584;2023-06-26T09:19:08;100992.50;;;29.47;44.69
23016;BME280;11674;52.428;13.584;2023-06-26T09:24:16;100987.63;;;29.54;44.13
23016;BME280;11674;52.428;13.584;2023-06-26T09:29:23;100975.72;;;29.66;43.95
23016;BME280;11674;52.428;13.584;2023-06-26T09:34:31;100978.50;;;29.84;43.81
23016;BME280;11674;52.428;13.584;2023-06-26T09:39:38;100979.28;;;29.95;43.89
23016;BME280;11674;52.428;13.584;2023-06-26T09:44:46;100966.63;;;29.92;42.95
23016;BME280;11674;52.428;13.584;2023-06-26T09:49:53;100973.50;;;30.02;42.76
23016;BME280;11674;52.428;13.584;2023-06-26T09:55:10;100957.91;;;30.17;42.56
23016;BME280;11674;52.428;13.584;2023-06-26T10:00:17;100956.97;;;30.34;42.32
23016;BME280;11674;52.428;13.584;2023-06-26T10:05:24;100961.78;;;30.51;42.24
23016;BME280;11674;52.428;13.584;2023-06-26T10:10:33;100942.84;;;30.64;41.64
23016;BME280;11674;52.428;13.584;2023-06-26T10:15:43;100948.50;;;30.74;41.74
23016;BME280;11674;52.428;13.584;2023-06-26T10:20:53;100937.41;;;30.80;41.72
23016;BME280;11674;52.428;13.584;2023-06-26T10:26:02;100926.59;;;30.94;42.02
23016;BME280;11674;52.428;13.584;2023-06-26T10:31:09;100913.00;;;31.02;40.89
23016;BME280;11674;52.428;13.584;2023-06-26T10:36:20;100913.34;;;31.11;40.29
23016;BME280;11674;52.428;13.584;2023-06-26T10:41:40;100911.09;;;31.29;39.75
23016;BME280;11674;52.428;13.584;2023-06-26T10:46:54;100906.72;;;31.51;39.29
23016;BME280;11674;52.428;13.584;2023-06-26T10:52:01;100897.22;;;31.57;38.80
23016;BME280;11674;52.428;13.584;2023-06-26T10:57:08;100882.50;;;31.55;38.05
23016;BME280;11674;52.428;13.584;2023-06-26T11:02:15;100884.91;;;31.90;37.93
23016;BME280;11674;52.428;13.584;2023-06-26T11:07:26;100874.34;;;32.10;37.50
23016;BME280;11674;52.428;13.584;2023-06-26T11:12:44;100881.16;;;32.20;37.47
23016;BME280;11674;52.428;13.584;2023-06-26T11:17:51;100869.97;;;32.52;37.07
23016;BME280;11674;52.428;13.584;2023-06-26T11:22:58;100869.53;;;32.80;36.91
23016;BME280;11674;52.428;13.584;2023-06-26T11:28:05;100859.66;;;33.00;36.57
23016;BME280;11674;52.428;13.584;2023-06-26T11:33:12;100860.84;;;33.22;36.36
23016;BME280;11674;52.428;13.584;2023-06-26T11:38:19;100850.31;;;33.35;35.86
23016;BME280;11674;52.428;13.584;2023-06-26T11:43:26;100838.28;;;33.40;35.03
23016;BME280;11674;52.428;13.584;2023-06-26T11:48:33;100827.91;;;33.62;35.33
23016;BME280;11674;52.428;13.584;2023-06-26T11:53:41;100828.31;;;34.00;34.98
23016;BME280;11674;52.428;13.584;2023-06-26T11:59:09;100808.63;;;34.30;34.85
23016;BME280;11674;52.428;13.584;2023-06-26T12:04:17;100791.47;;;34.55;34.83
23016;BME280;11674;52.428;13.584;2023-06-26T12:09:24;100787.63;;;34.74;34.12
23016;BME280;11674;52.428;13.584;2023-06-26T12:14:32;100779.50;;;35.01;32.88
23016;BME280;11674;52.428;13.584;2023-06-26T12:19:45;100772.56;;;35.11;33.22
23016;BME280;11674;52.428;13.584;2023-06-26T12:24:56;100766.09;;;35.61;33.09
23016;BME280;11674;52.428;13.584;2023-06-26T12:30:04;100754.06;;;36.25;33.46
23016;BME280;11674;52.428;13.584;2023-06-26T12:35:11;100745.75;;;36.73;32.66
23016;BME280;11674;52.428;13.584;2023-06-26T12:40:19;100741.03;;;37.10;32.09
23016;BME280;11674;52.428;13.584;2023-06-26T12:45:26;100735.03;;;37.26;31.80
23016;BME280;11674;52.428;13.584;2023-06-26T12:50:37;100725.56;;;37.25;30.95
23016;BME280;11674;52.428;13.584;2023-06-26T12:55:44;100715.66;;;36.71;30.44
23016;BME280;11674;52.428;13.584;2023-06-26T13:00:51;100724.34;;;36.58;29.73
23016;BME280;11674;52.428;13.584;2023-06-26T13:05:58;100717.75;;;36.58;29.86
23016;BME280;11674;52.428;13.584;2023-06-26T13:11:05;100712.53;;;36.65;29.48
23016;BME280;11674;52.428;13.584;2023-06-26T13:16:12;100706.31;;;36.08;29.28
23016;BME280;11674;52.428;13.584;2023-06-26T13:21:19;100687.53;;;35.41;29.99
23016;BME280;11674;52.428;13.584;2023-06-26T13:26:26;100686.44;;;34.97;30.30
23016;BME280;11674;52.428;13.584;2023-06-26T13:31:33;100663.00;;;34.67;30.50
23016;BME280;11674;52.428;13.584;2023-06-26T13:36:40;100660.03;;;34.70;30.93
23016;BME280;11674;52.428;13.584;2023-06-26T13:41:47;100634.31;;;34.47;31.38
23016;BME280;11674;52.428;13.584;2023-06-26T13:46:54;100620.06;;;34.56;31.38
23016;BME280;11674;52.428;13.584;2023-06-26T13:52:01;100598.69;;;34.82;31.31
23016;BME280;11674;52.428;13.584;2023-06-26T13:57:08;100589.56;;;35.09;30.79
23016;BME280;11674;52.428;13.584;2023-06-26T14:02:15;100558.81;;;35.52;30.52
23016;BME280;11674;52.428;13.584;2023-06-26T14:07:22;100560.78;;;35.68;30.02
23016;BME280;11674;52.428;13.584;2023-06-26T14:12:29;100552.78;;;35.72;29.88
23016;BME280;11674;52.428;13.584;2023-06-26T14:17:36;100566.13;;;35.07;29.78
23016;BME280;11674;52.428;13.584;2023-06-26T14:22:43;100589.94;;;34.16;30.05
23016;BME280;11674;52.428;13.584;2023-06-26T14:27:50;100570.31;;;33.67;30.84
23016;BME280;11674;52.428;13.584;2023-06-26T14:32:57;100584.00;;;33.31;31.47
23016;BME280;11674;52.428;13.584;2023-06-26T14:38:04;100735.03;;;32.64;32.73
23016;BME280;11674;52.428;13.584;2023-06-26T14:43:11;100771.88;;;30.03;37.14
23016;BME280;11674;52.428;13.584;2023-06-26T14:48:18;100816.78;;;26.35;42.68
23016;BME280;11674;52.428;13.584;2023-06-26T14:53:25;100828.63;;;23.11;49.94
23016;BME280;11674;52.428;13.584;2023-06-26T14:58:32;100888.41;;;21.94;54.20
23016;BME280;11674;52.428;13.584;2023-06-26T15:03:39;100883.28;;;21.41;56.82
23016;BME280;11674;52.428;13.584;2023-06-26T15:08:46;100894.63;;;21.29;58.23
23016;BME280;11674;52.428;13.584;2023-06-26T15:13:54;100890.50;;;21.26;60.19
23016;BME280;11674;52.428;13.584;2023-06-26T15:19:01;100887.06;;;21.33;62.07
23016;BME280;11674;52.428;13.584;2023-06-26T15:24:08;100893.22;;;21.50;63.81
23016;BME280;11674;52.428;13.584;2023-06-26T15:29:15;100908.31;;;21.70;64.77
23016;BME280;11674;52.428;13.584;2023-06-26T15:34:22;100905.28;;;21.90;65.73
23016;BME280;11674;52.428;13.584;2023-06-26T15:39:29;100907.84;;;22.11;66.70
23016;BME280;11674;52.428;13.584;2023-06-26T15:44:37;100923.72;;;22.31;67.83
23016;BME280;11674;52.428;13.584;2023-06-26T15:49:44;100905.47;;;22.44;68.94
23016;BME280;11674;52.428;13.584;2023-06-26T15:54:51;100924.91;;;22.45;69.83
23016;BME280;11674;52.428;13.584;2023-06-26T15:59:58;100939.28;;;22.40;71.53
23016;BME280;11674;52.428;13.584;2023-06-26T16:05:12;100961.34;;;22.04;73.46
23016;BME280;11674;52.428;13.584;2023-06-26T16:10:26;100934.50;;;21.82;75.12
23016;BME280;11674;52.428;13.584;2023-06-26T16:15:33;100924.56;;;21.73;75.66
23016;BME280;11674;52.428;13.584;2023-06-26T16:20:40;100920.69;;;21.65;76.89
23016;BME280;11674;52.428;13.584;2023-06-26T16:25:47;100910.44;;;21.73;77.48
23016;BME280;11674;52.428;13.584;2023-06-26T16:30:54;100923.50;;;21.93;78.53
23016;BME280;11674;52.428;13.584;2023-06-26T16:36:01;100903.28;;;22.22;78.18
23016;BME280;11674;52.428;13.584;2023-06-26T16:41:09;100904.75;;;22.47;78.42
23016;BME280;11674;52.428;13.584;2023-06-26T16:46:16;100906.63;;;22.58;79.04
23016;BME280;11674;52.428;13.584;2023-06-26T16:51:23;100898.34;;;22.65;78.92
23016;BME280;11674;52.428;13.584;2023-06-26T16:56:30;100908.38;;;22.63;79.11
23016;BME280;11674;52.428;13.584;2023-06-26T17:01:37;100925.34;;;22.63;79.46
23016;BME280;11674;52.428;13.584;2023-06-26T17:06:44;100924.72;;;22.69;79.67
23016;BME280;11674;52.428;13.584;2023-06-26T17:11:51;100926.34;;;22.70;79.90
23016;BME280;11674;52.428;13.584;2023-06-26T17:16:58;100938.28;;;22.79;80.03
23016;BME280;11674;52.428;13.584;2023-06-26T17:22:05;100948.22;;;22.89;80.28
23016;BME280;11674;52.428;13.584;2023-06-26T17:27:14;100938.97;;;22.92;80.36
23016;BME280;11674;52.428;13.584;2023-06-26T17:32:20;100969.84;;;22.97;80.52
23016;BME280;11674;52.428;13.584;2023-06-26T17:37:27;100969.56;;;23.17;80.97
23016;BME280;11674;52.428;13.584;2023-06-26T17:42:34;100978.06;;;23.36;80.78
23016;BME280;11674;52.428;13.584;2023-06-26T17:47:41;100977.25;;;23.36;80.55
23016;BME280;11674;52.428;13.584;2023-06-26T17:52:48;100988.47;;;23.32;80.18
23016;BME280;11674;52.428;13.584;2023-06-26T17:57:55;100981.41;;;23.23;80.75
23016;BME280;11674;52.428;13.584;2023-06-26T18:03:02;100991.72;;;23.15;80.26
23016;BME280;11674;52.428;13.584;2023-06-26T18:08:10;100998.00;;;23.09;80.49
23016;BME280;11674;52.428;13.584;2023-06-26T18:13:16;101009.66;;;23.04;80.28
23016;BME280;11674;52.428;13.584;2023-06-26T18:18:23;101024.16;;;23.02;80.80
23016;BME280;11674;52.428;13.584;2023-06-26T18:23:32;101013.66;;;23.03;80.51
23016;BME280;11674;52.428;13.584;2023-06-26T18:28:39;101032.59;;;22.99;80.62
23016;BME280;11674;52.428;13.584;2023-06-26T18:33:46;101010.94;;;22.91;80.90
23016;BME280;11674;52.428;13.584;2023-06-26T18:38:53;101007.19;;;22.87;81.07
23016;BME280;11674;52.428;13.584;2023-06-26T18:44:00;101020.44;;;22.83;80.76
23016;BME280;11674;52.428;13.584;2023-06-26T18:49:07;101025.19;;;22.79;81.16
23016;BME280;11674;52.428;13.584;2023-06-26T18:54:14;101012.59;;;22.76;80.99
23016;BME280;11674;52.428;13.584;2023-06-26T18:59:21;101027.09;;;22.75;81.18
23016;BME280;11674;52.428;13.584;2023-06-26T19:04:28;101017.69;;;22.71;81.12
23016;BME280;11674;52.428;13.584;2023-06-26T19:09:35;101021.63;;;22.66;81.21
23016;BME280;11674;52.428;13.584;2023-06-26T19:14:42;101030.47;;;22.65;81.10
23016;BME280;11674;52.428;13.584;2023-06-26T19:19:49;101041.34;;;22.63;81.54
23016;BME280;11674;52.428;13.584;2023-06-26T19:25:00;101046.91;;;22.59;81.50
23016;BME280;11674;52.428;13.584;2023-06-26T19:30:08;101047.63;;;22.56;81.92
23016;BME280;11674;52.428;13.584;2023-06-26T19:35:15;101052.38;;;22.52;81.67
23016;BME280;11674;52.428;13.584;2023-06-26T19:40:21;101065.13;;;22.46;81.84
23016;BME280;11674;52.428;13.584;2023-06-26T19:45:28;101066.31;;;22.45;81.88
23016;BME280;11674;52.428;13.584;2023-06-26T19:50:35;101063.72;;;22.40;81.66
23016;BME280;11674;52.428;13.584;2023-06-26T19:55:42;101059.53;;;22.34;81.86
23016;BME280;11674;52.428;13.584;2023-06-26T20:00:49;101063.72;;;22.25;81.19
23016;BME280;11674;52.428;13.584;2023-06-26T20:05:56;101067.41;;;22.13;80.59
23016;BME280;11674;52.428;13.584;2023-06-26T20:11:03;101068.75;;;22.04;80.63
23016;BME280;11674;52.428;13.584;2023-06-26T20:16:10;101075.38;;;21.96;80.70
23016;BME280;11674;52.428;13.584;2023-06-26T20:21:17;101086.47;;;21.89;80.71
23016;BME280;11674;52.428;13.584;2023-06-26T20:26:24;101084.97;;;21.79;80.27
23016;BME280;11674;52.428;13.584;2023-06-26T20:31:31;101093.94;;;21.69;79.88
23016;BME280;11674;52.428;13.584;2023-06-26T20:36:38;101076.63;;;21.59;79.66
23016;BME280;11674;52.428;13.584;2023-06-26T20:41:45;101082.75;;;21.49;79.68
23016;BME280;11674;52.428;13.584;2023-06-26T20:46:52;101078.53;;;21.43;79.92
23016;BME280;11674;52.428;13.584;2023-06-26T20:51:59;101084.44;;;21.38;79.64
23016;BME280;11674;52.428;13.584;2023-06-26T20:57:07;101082.22;;;21.31;79.34
23016;BME280;11674;52.428;13.584;2023-06-26T21:02:13;101080.94;;;21.29;79.08
23016;BME280;11674;52.428;13.584;2023-06-26T21:07:20;101095.28;;;21.24;78.54
23016;BME280;11674;52.428;13.584;2023-06-26T21:12:27;101096.31;;;21.19;78.00
23016;BME280;11674;52.428;13.584;2023-06-26T21:17:34;101104.78;;;21.19;77.59
23016;BME280;11674;52.428;13.584;2023-06-26T21:22:41;101109.13;;;21.17;76.61
23016;BME280;11674;52.428;13.584;2023-06-26T21:27:48;101113.97;;;21.16;76.58
23016;BME280;11674;52.428;13.584;2023-06-26T21:32:55;101118.44;;;21.17;76.03
23016;BME280;11674;52.428;13.584;2023-06-26T21:38:02;101121.28;;;21.17;74.54
23016;BME280;11674;52.428;13.584;2023-06-26T21:43:09;101113.50;;;21.14;73.43
23016;BME280;11674;52.428;13.584;2023-06-26T21:53:23;101128.22;;;21.08;72.56
23016;BME280;11674;52.428;13.584;2023-06-26T21:58:30;101126.06;;;21.05;71.83
23016;BME280;11674;52.428;13.584;2023-06-26T22:03:37;101131.94;;;21.00;71.64
23016;BME280;11674;52.428;13.584;2023-06-26T22:08:45;101149.47;;;20.93;71.04
23016;BME280;11674;52.428;13.584;2023-06-26T22:13:51;101133.91;;;20.87;71.20
23016;BME280;11674;52.428;13.584;2023-06-26T22:18:58;101154.69;;;20.83;71.22
23016;BME280;11674;52.428;13.584;2023-06-26T22:24:05;101151.63;;;20.76;70.20
23016;BME280;11674;52.428;13.584;2023-06-26T22:29:12;101150.00;;;20.75;70.29
23016;BME280;11674;52.428;13.584;2023-06-26T22:34:19;101138.22;;;20.73;69.76
23016;BME280;11674;52.428;13.584;2023-06-26T22:39:26;101135.28;;;20.69;69.28
23016;BME280;11674;52.428;13.584;2023-06-26T22:44:33;101141.97;;;20.65;68.74
23016;BME280;11674;52.428;13.584;2023-06-26T22:49:41;101137.03;;;20.62;68.63
23016;BME280;11674;52.428;13.584;2023-06-26T22:54:48;101147.50;;;20.61;68.55
23016;BME280;11674;52.428;13.584;2023-06-26T22:59:55;101151.22;;;20.53;68.25
23016;BME280;11674;52.428;13.584;2023-06-26T23:05:03;101148.97;;;20.47;68.19
23016;BME280;11674;52.428;13.584;2023-06-26T23:10:10;101148.38;;;20.41;68.56
23016;BME280;11674;52.428;13.584;2023-06-26T23:15:17;101149.88;;;20.39;68.52
23016;BME280;11674;52.428;13.584;2023-06-26T23:20:24;101164.19;;;20.34;68.43
23016;BME280;11674;52.428;13.584;2023-06-26T23:25:31;101160.41;;;20.30;68.39
23016;BME280;11674;52.428;13.584;2023-06-26T23:30:38;101165.44;;;20.24;68.73
23016;BME280;11674;52.428;13.584;2023-06-26T23:35:45;101159.19;;;20.19;68.53
23016;BME280;11674;52.428;13.584;2023-06-26T23:40:52;101180.75;;;20.15;68.57
23016;BME280;11674;52.428;13.584;2023-06-26T23:45:59;101171.38;;;20.11;69.03
23016;BME280;11674;52.428;13.584;2023-06-26T23:51:06;101177.97;;;20.06;68.78
23016;BME280;11674;52.428;13.584;2023-06-26T23:56:13;101185.31;;;19.99;69.03
